Jerusalem, OH (43747)

06:21 AM EDT die 28o July, anno 2015 (GMT -0400)
Jerusalem | | Change Station
CLOSE
Current Station
Personal Weather Stations
Location: Jerusalem, OH
Elevation: 1253 ft
Nearby Weather Stations

Elev 1253 ft 39.86 °N, 81.11 °W | Updated 46 seconds ago

Partialiter Nubila
Partialiter Nubila
65.1 °F
Feels Like 65.1 °F
N
0.0
Ventus Variabilis Ventus from Aquilo
Gusts 0.0 mph

Hodie
High -- | Low -- °F
--% Chance of Precip.
Yesterday
High -- | Low -- °F
Precip. -- in
6:19 AM 8:42 PM
Waxing Gibbous, 88% visible
Pressio 30.00 in
Visibilitas 8.0 milia passuum
Clouds Serena
Frigus in quo Ros apparet 65 °F
Umor 98%
Rainfall 0.00 in
Snow Depth Not available.
UV 0 out of 12
Pollen 5.30 out of 12
Air Quality Not available.
Flu Activity Not available.
METAR KHLG 280953Z AUTO 00000KT 8SM CLR 19/18 A3002 RMK AO2 SLP158 T01940178

More Conditions Fewer Conditions

Pressio 30.00 in
Visibilitas 8.0 milia passuum
Clouds Serena
Frigus in quo Ros apparet 65 °F
Umor 98%
Rainfall 0.00 in
Snow Depth Not available.
UV 0 out of 12
Pollen 5.30 out of 12
Air Quality Not available.
Flu Activity Not available.
METAR KHLG 280953Z AUTO 00000KT 8SM CLR 19/18 A3002 RMK AO2 SLP158 T01940178

More Conditions Fewer Conditions

10-Day Weather Forecast

×

Almanac

Astronomy

Jul. 28, 2015 Rise Set
Actual Time
Civil Twilight
Nautical Twilight
Astronomical Twilight
Moon
Length Of Visible Light
Length of Day
Tomorrow will be .
, % of the Moon is Illuminated

Today's Extremes

State Highs State Lows

Community

WunderPhotos

Upload Photos

1,841,800 photos uploaded!

WunderBlogs® & News

Nearby

Air Quality

  Air Quality AQ Index Pollutant
Not available.

Snow Depth

Station Depth Elevation

Earthquake Activity

City Distance Mag. Time & Date
Minimum magnitude displayed is 2.5.

Coastal Water Temperatures

Locus Calor

Stations

Nearby Weather Stations

Station Location Temp Frigus Venti Frigus in quo Ros apparet Umor Ventus Precip. Elev Renovata Type